sensor_id;sensor_type;location;lat;lon;timestamp;P1;durP1;ratioP1;P2;durP2;ratioP2
22531;SDS011;11432;46.924;7.114;2023-02-11T00:01:49;21.92;;;14.90;;
22531;SDS011;11432;46.924;7.114;2023-02-11T00:04:15;25.15;;;15.00;;
22531;SDS011;11432;46.924;7.114;2023-02-11T00:06:40;24.48;;;14.77;;
22531;SDS011;11432;46.924;7.114;2023-02-11T00:09:06;23.08;;;14.45;;
22531;SDS011;11432;46.924;7.114;2023-02-11T00:11:33;21.20;;;14.23;;
22531;SDS011;11432;46.924;7.114;2023-02-11T00:14:00;25.65;;;14.88;;
22531;SDS011;11432;46.924;7.114;2023-02-11T00:16:28;26.85;;;15.52;;
22531;SDS011;11432;46.924;7.114;2023-02-11T00:18:57;25.10;;;15.23;;
22531;SDS011;11432;46.924;7.114;2023-02-11T00:21:24;23.45;;;15.18;;
22531;SDS011;11432;46.924;7.114;2023-02-11T00:23:50;22.15;;;14.45;;
22531;SDS011;11432;46.924;7.114;2023-02-11T00:28:47;22.00;;;14.13;;
22531;SDS011;11432;46.924;7.114;2023-02-11T00:31:14;21.23;;;14.38;;
22531;SDS011;11432;46.924;7.114;2023-02-11T00:33:41;22.67;;;14.80;;
22531;SDS011;11432;46.924;7.114;2023-02-11T00:36:07;21.27;;;14.40;;
22531;SDS011;11432;46.924;7.114;2023-02-11T00:41:02;23.20;;;15.52;;
22531;SDS011;11432;46.924;7.114;2023-02-11T00:43:27;22.65;;;14.43;;
22531;SDS011;11432;46.924;7.114;2023-02-11T00:45:53;23.13;;;14.38;;
22531;SDS011;11432;46.924;7.114;2023-02-11T00:48:18;21.58;;;13.93;;
22531;SDS011;11432;46.924;7.114;2023-02-11T00:50:44;25.75;;;15.35;;
22531;SDS011;11432;46.924;7.114;2023-02-11T00:53:10;23.27;;;14.68;;
22531;SDS011;11432;46.924;7.114;2023-02-11T00:55:35;22.40;;;14.57;;
22531;SDS011;11432;46.924;7.114;2023-02-11T00:58:01;22.65;;;14.32;;
22531;SDS011;11432;46.924;7.114;2023-02-11T01:00:27;21.13;;;14.40;;
22531;SDS011;11432;46.924;7.114;2023-02-11T01:02:53;22.45;;;15.18;;
22531;SDS011;11432;46.924;7.114;2023-02-11T01:05:19;23.52;;;15.38;;
22531;SDS011;11432;46.924;7.114;2023-02-11T01:07:45;21.90;;;14.65;;
22531;SDS011;11432;46.924;7.114;2023-02-11T01:10:11;20.80;;;14.20;;
22531;SDS011;11432;46.924;7.114;2023-02-11T01:12:36;25.52;;;14.85;;
22531;SDS011;11432;46.924;7.114;2023-02-11T01:15:03;20.73;;;14.27;;
22531;SDS011;11432;46.924;7.114;2023-02-11T01:17:32;23.67;;;14.57;;
22531;SDS011;11432;46.924;7.114;2023-02-11T01:19:58;23.60;;;14.80;;
22531;SDS011;11432;46.924;7.114;2023-02-11T01:22:27;22.75;;;14.55;;
22531;SDS011;11432;46.924;7.114;2023-02-11T01:24:53;21.65;;;14.93;;
22531;SDS011;11432;46.924;7.114;2023-02-11T01:27:18;22.95;;;14.38;;
22531;SDS011;11432;46.924;7.114;2023-02-11T01:29:44;23.45;;;14.40;;
22531;SDS011;11432;46.924;7.114;2023-02-11T01:32:10;23.75;;;14.88;;
22531;SDS011;11432;46.924;7.114;2023-02-11T01:34:35;19.70;;;14.20;;
22531;SDS011;11432;46.924;7.114;2023-02-11T01:37:01;22.40;;;14.43;;
22531;SDS011;11432;46.924;7.114;2023-02-11T01:39:26;22.70;;;14.73;;
22531;SDS011;11432;46.924;7.114;2023-02-11T01:41:52;20.92;;;13.82;;
22531;SDS011;11432;46.924;7.114;2023-02-11T01:44:29;21.17;;;14.80;;
22531;SDS011;11432;46.924;7.114;2023-02-11T01:46:58;22.45;;;14.85;;
22531;SDS011;11432;46.924;7.114;2023-02-11T01:49:25;20.17;;;13.55;;
22531;SDS011;11432;46.924;7.114;2023-02-11T01:54:29;22.48;;;14.13;;
22531;SDS011;11432;46.924;7.114;2023-02-11T01:57:17;21.13;;;14.55;;
22531;SDS011;11432;46.924;7.114;2023-02-11T02:05:20;22.00;;;14.57;;
22531;SDS011;11432;46.924;7.114;2023-02-11T02:10:45;22.52;;;15.13;;
22531;SDS011;11432;46.924;7.114;2023-02-11T02:13:13;22.30;;;15.00;;
22531;SDS011;11432;46.924;7.114;2023-02-11T02:15:40;22.67;;;14.50;;
22531;SDS011;11432;46.924;7.114;2023-02-11T02:35:00;20.58;;;13.48;;
22531;SDS011;11432;46.924;7.114;2023-02-11T02:37:37;21.25;;;14.05;;
22531;SDS011;11432;46.924;7.114;2023-02-11T02:40:11;19.60;;;13.40;;
22531;SDS011;11432;46.924;7.114;2023-02-11T02:42:43;21.05;;;13.65;;
22531;SDS011;11432;46.924;7.114;2023-02-11T02:45:10;22.15;;;14.35;;
22531;SDS011;11432;46.924;7.114;2023-02-11T02:47:37;19.75;;;13.80;;
22531;SDS011;11432;46.924;7.114;2023-02-11T02:50:03;21.50;;;14.35;;
22531;SDS011;11432;46.924;7.114;2023-02-11T02:52:35;20.98;;;13.40;;
22531;SDS011;11432;46.924;7.114;2023-02-11T02:55:19;22.40;;;13.98;;
22531;SDS011;11432;46.924;7.114;2023-02-11T03:06:16;21.05;;;13.75;;
22531;SDS011;11432;46.924;7.114;2023-02-11T03:08:57;21.85;;;13.20;;
22531;SDS011;11432;46.924;7.114;2023-02-11T03:11:28;22.05;;;14.02;;
22531;SDS011;11432;46.924;7.114;2023-02-11T03:13:54;20.98;;;14.07;;
22531;SDS011;11432;46.924;7.114;2023-02-11T03:16:22;20.92;;;14.27;;
22531;SDS011;11432;46.924;7.114;2023-02-11T03:18:58;22.05;;;14.23;;
22531;SDS011;11432;46.924;7.114;2023-02-11T03:21:27;20.42;;;14.27;;
22531;SDS011;11432;46.924;7.114;2023-02-11T03:23:56;20.83;;;13.53;;
22531;SDS011;11432;46.924;7.114;2023-02-11T03:26:29;21.13;;;13.65;;
22531;SDS011;11432;46.924;7.114;2023-02-11T03:29:15;21.83;;;13.82;;
22531;SDS011;11432;46.924;7.114;2023-02-11T03:31:55;20.88;;;13.40;;
22531;SDS011;11432;46.924;7.114;2023-02-11T03:34:45;17.35;;;12.65;;
22531;SDS011;11432;46.924;7.114;2023-02-11T03:37:26;19.38;;;13.05;;
22531;SDS011;11432;46.924;7.114;2023-02-11T03:39:59;20.30;;;12.93;;
22531;SDS011;11432;46.924;7.114;2023-02-11T03:42:30;18.60;;;13.13;;
22531;SDS011;11432;46.924;7.114;2023-02-11T03:45:04;21.33;;;13.52;;
22531;SDS011;11432;46.924;7.114;2023-02-11T03:47:34;22.27;;;13.60;;
22531;SDS011;11432;46.924;7.114;2023-02-11T03:50:04;20.83;;;13.30;;
22531;SDS011;11432;46.924;7.114;2023-02-11T03:52:32;20.07;;;13.30;;
22531;SDS011;11432;46.924;7.114;2023-02-11T03:55:01;20.30;;;12.93;;
22531;SDS011;11432;46.924;7.114;2023-02-11T03:57:32;22.00;;;13.90;;
22531;SDS011;11432;46.924;7.114;2023-02-11T03:59:58;23.90;;;14.07;;
22531;SDS011;11432;46.924;7.114;2023-02-11T04:02:32;20.58;;;14.00;;
22531;SDS011;11432;46.924;7.114;2023-02-11T04:04:59;19.05;;;13.10;;
22531;SDS011;11432;46.924;7.114;2023-02-11T04:07:25;23.58;;;13.93;;
22531;SDS011;11432;46.924;7.114;2023-02-11T04:09:51;19.40;;;12.75;;
22531;SDS011;11432;46.924;7.114;2023-02-11T04:12:17;21.45;;;13.70;;
22531;SDS011;11432;46.924;7.114;2023-02-11T04:14:43;19.95;;;13.20;;
22531;SDS011;11432;46.924;7.114;2023-02-11T04:17:08;21.23;;;14.13;;
22531;SDS011;11432;46.924;7.114;2023-02-11T04:19:34;22.33;;;14.30;;
22531;SDS011;11432;46.924;7.114;2023-02-11T04:22:00;21.52;;;14.00;;
22531;SDS011;11432;46.924;7.114;2023-02-11T04:24:26;18.23;;;12.75;;
22531;SDS011;11432;46.924;7.114;2023-02-11T04:26:52;21.23;;;13.65;;
22531;SDS011;11432;46.924;7.114;2023-02-11T04:29:17;22.23;;;13.57;;
22531;SDS011;11432;46.924;7.114;2023-02-11T04:31:43;22.67;;;14.10;;
22531;SDS011;11432;46.924;7.114;2023-02-11T04:34:09;19.92;;;13.57;;
22531;SDS011;11432;46.924;7.114;2023-02-11T04:36:35;19.23;;;12.70;;
22531;SDS011;11432;46.924;7.114;2023-02-11T04:39:01;21.35;;;13.38;;
22531;SDS011;11432;46.924;7.114;2023-02-11T04:41:27;20.40;;;12.23;;
22531;SDS011;11432;46.924;7.114;2023-02-11T04:43:53;21.88;;;12.25;;
22531;SDS011;11432;46.924;7.114;2023-02-11T04:46:19;19.77;;;12.45;;
22531;SDS011;11432;46.924;7.114;2023-02-11T04:48:44;19.35;;;12.65;;
22531;SDS011;11432;46.924;7.114;2023-02-11T04:51:10;20.15;;;12.13;;
22531;SDS011;11432;46.924;7.114;2023-02-11T04:53:35;23.02;;;12.93;;
22531;SDS011;11432;46.924;7.114;2023-02-11T04:56:01;20.85;;;12.85;;
22531;SDS011;11432;46.924;7.114;2023-02-11T04:58:27;19.73;;;12.70;;
22531;SDS011;11432;46.924;7.114;2023-02-11T05:00:52;20.13;;;12.75;;
22531;SDS011;11432;46.924;7.114;2023-02-11T05:03:19;18.33;;;12.02;;
22531;SDS011;11432;46.924;7.114;2023-02-11T05:05:45;17.55;;;11.95;;
22531;SDS011;11432;46.924;7.114;2023-02-11T05:08:10;20.38;;;12.45;;
22531;SDS011;11432;46.924;7.114;2023-02-11T05:10:36;18.08;;;12.60;;
22531;SDS011;11432;46.924;7.114;2023-02-11T05:13:02;17.88;;;11.52;;
22531;SDS011;11432;46.924;7.114;2023-02-11T05:15:28;18.27;;;11.95;;
22531;SDS011;11432;46.924;7.114;2023-02-11T05:17:54;17.45;;;12.02;;
22531;SDS011;11432;46.924;7.114;2023-02-11T05:20:20;21.88;;;13.02;;
22531;SDS011;11432;46.924;7.114;2023-02-11T05:22:46;21.92;;;11.90;;
22531;SDS011;11432;46.924;7.114;2023-02-11T05:25:11;22.65;;;11.57;;
22531;SDS011;11432;46.924;7.114;2023-02-11T05:27:37;18.92;;;11.70;;
22531;SDS011;11432;46.924;7.114;2023-02-11T05:30:03;17.98;;;12.27;;
22531;SDS011;11432;46.924;7.114;2023-02-11T05:32:29;20.20;;;11.25;;
22531;SDS011;11432;46.924;7.114;2023-02-11T05:34:55;18.30;;;11.40;;
22531;SDS011;11432;46.924;7.114;2023-02-11T05:37:20;17.70;;;12.02;;
22531;SDS011;11432;46.924;7.114;2023-02-11T05:39:46;15.48;;;10.30;;
22531;SDS011;11432;46.924;7.114;2023-02-11T05:42:12;18.92;;;10.70;;
22531;SDS011;11432;46.924;7.114;2023-02-11T05:44:38;15.07;;;10.40;;
22531;SDS011;11432;46.924;7.114;2023-02-11T05:47:03;16.50;;;10.73;;
22531;SDS011;11432;46.924;7.114;2023-02-11T05:49:29;17.38;;;11.10;;
22531;SDS011;11432;46.924;7.114;2023-02-11T05:51:55;16.90;;;11.18;;
22531;SDS011;11432;46.924;7.114;2023-02-11T05:54:20;19.67;;;11.23;;
22531;SDS011;11432;46.924;7.114;2023-02-11T05:56:46;18.55;;;11.30;;
22531;SDS011;11432;46.924;7.114;2023-02-11T05:59:12;15.48;;;10.38;;
22531;SDS011;11432;46.924;7.114;2023-02-11T06:01:38;18.08;;;11.15;;
22531;SDS011;11432;46.924;7.114;2023-02-11T06:04:04;17.02;;;11.32;;
22531;SDS011;11432;46.924;7.114;2023-02-11T06:06:30;17.42;;;11.13;;
22531;SDS011;11432;46.924;7.114;2023-02-11T06:08:55;20.77;;;10.43;;
22531;SDS011;11432;46.924;7.114;2023-02-11T06:11:21;16.67;;;11.15;;
22531;SDS011;11432;46.924;7.114;2023-02-11T06:13:46;14.77;;;10.20;;
22531;SDS011;11432;46.924;7.114;2023-02-11T06:16:12;15.48;;;10.40;;
22531;SDS011;11432;46.924;7.114;2023-02-11T06:18:38;16.08;;;9.65;;
22531;SDS011;11432;46.924;7.114;2023-02-11T06:21:07;16.83;;;10.68;;
22531;SDS011;11432;46.924;7.114;2023-02-11T06:23:34;15.15;;;9.50;;
22531;SDS011;11432;46.924;7.114;2023-02-11T06:26:01;16.10;;;10.57;;
22531;SDS011;11432;46.924;7.114;2023-02-11T06:28:30;15.80;;;10.20;;
22531;SDS011;11432;46.924;7.114;2023-02-11T06:30:56;18.63;;;10.93;;
22531;SDS011;11432;46.924;7.114;2023-02-11T06:33:23;15.20;;;10.00;;
22531;SDS011;11432;46.924;7.114;2023-02-11T06:35:49;16.13;;;10.55;;
22531;SDS011;11432;46.924;7.114;2023-02-11T06:38:15;18.17;;;11.35;;
22531;SDS011;11432;46.924;7.114;2023-02-11T06:40:45;16.58;;;11.13;;
22531;SDS011;11432;46.924;7.114;2023-02-11T06:43:11;16.73;;;10.50;;
22531;SDS011;11432;46.924;7.114;2023-02-11T06:45:37;15.63;;;10.38;;
22531;SDS011;11432;46.924;7.114;2023-02-11T06:48:02;16.73;;;10.70;;
22531;SDS011;11432;46.924;7.114;2023-02-11T06:50:28;15.10;;;9.32;;
22531;SDS011;11432;46.924;7.114;2023-02-11T06:52:54;15.23;;;9.45;;
22531;SDS011;11432;46.924;7.114;2023-02-11T06:55:19;14.20;;;9.77;;
22531;SDS011;11432;46.924;7.114;2023-02-11T06:57:45;14.20;;;9.57;;
22531;SDS011;11432;46.924;7.114;2023-02-11T07:00:11;14.05;;;8.63;;
22531;SDS011;11432;46.924;7.114;2023-02-11T07:02:38;12.95;;;9.55;;
22531;SDS011;11432;46.924;7.114;2023-02-11T07:05:04;15.15;;;9.52;;
22531;SDS011;11432;46.924;7.114;2023-02-11T07:07:31;12.68;;;7.97;;
22531;SDS011;11432;46.924;7.114;2023-02-11T07:09:56;15.27;;;8.55;;
22531;SDS011;11432;46.924;7.114;2023-02-11T07:12:22;14.75;;;9.70;;
22531;SDS011;11432;46.924;7.114;2023-02-11T07:14:48;13.60;;;9.10;;
22531;SDS011;11432;46.924;7.114;2023-02-11T07:17:13;17.05;;;9.73;;
22531;SDS011;11432;46.924;7.114;2023-02-11T07:19:39;17.48;;;9.73;;
22531;SDS011;11432;46.924;7.114;2023-02-11T07:22:05;19.95;;;11.38;;
22531;SDS011;11432;46.924;7.114;2023-02-11T07:24:31;19.20;;;11.43;;
22531;SDS011;11432;46.924;7.114;2023-02-11T07:26:56;17.38;;;10.68;;
22531;SDS011;11432;46.924;7.114;2023-02-11T07:29:22;17.05;;;10.90;;
22531;SDS011;11432;46.924;7.114;2023-02-11T07:31:47;16.98;;;9.93;;
22531;SDS011;11432;46.924;7.114;2023-02-11T07:34:14;17.95;;;10.43;;
22531;SDS011;11432;46.924;7.114;2023-02-11T07:36:39;18.55;;;10.80;;
22531;SDS011;11432;46.924;7.114;2023-02-11T07:39:07;20.45;;;11.93;;
22531;SDS011;11432;46.924;7.114;2023-02-11T07:41:33;16.58;;;9.90;;
22531;SDS011;11432;46.924;7.114;2023-02-11T07:44:01;18.23;;;10.60;;
22531;SDS011;11432;46.924;7.114;2023-02-11T07:46:27;16.73;;;10.50;;
22531;SDS011;11432;46.924;7.114;2023-02-11T07:48:53;17.33;;;10.30;;
22531;SDS011;11432;46.924;7.114;2023-02-11T07:51:26;16.27;;;10.18;;
22531;SDS011;11432;46.924;7.114;2023-02-11T07:53:56;19.75;;;11.77;;
22531;SDS011;11432;46.924;7.114;2023-02-11T07:56:22;18.05;;;11.15;;
22531;SDS011;11432;46.924;7.114;2023-02-11T07:58:49;16.77;;;10.57;;
22531;SDS011;11432;46.924;7.114;2023-02-11T08:01:16;19.08;;;11.00;;
22531;SDS011;11432;46.924;7.114;2023-02-11T08:03:43;17.95;;;11.25;;
22531;SDS011;11432;46.924;7.114;2023-02-11T08:06:11;19.48;;;11.85;;
22531;SDS011;11432;46.924;7.114;2023-02-11T08:08:38;21.25;;;12.02;;
22531;SDS011;11432;46.924;7.114;2023-02-11T08:11:08;21.13;;;12.75;;
22531;SDS011;11432;46.924;7.114;2023-02-11T08:13:39;18.38;;;11.88;;
22531;SDS011;11432;46.924;7.114;2023-02-11T08:16:05;19.52;;;10.73;;
22531;SDS011;11432;46.924;7.114;2023-02-11T08:18:31;18.30;;;10.65;;
22531;SDS011;11432;46.924;7.114;2023-02-11T08:21:07;16.65;;;9.93;;
22531;SDS011;11432;46.924;7.114;2023-02-11T08:23:40;16.80;;;10.48;;
22531;SDS011;11432;46.924;7.114;2023-02-11T08:26:11;14.80;;;9.73;;
22531;SDS011;11432;46.924;7.114;2023-02-11T08:28:39;17.35;;;9.95;;
22531;SDS011;11432;46.924;7.114;2023-02-11T08:31:10;16.98;;;9.98;;
22531;SDS011;11432;46.924;7.114;2023-02-11T08:33:38;13.80;;;8.88;;
22531;SDS011;11432;46.924;7.114;2023-02-11T08:36:18;18.58;;;10.50;;
22531;SDS011;11432;46.924;7.114;2023-02-11T08:38:46;15.30;;;10.60;;
22531;SDS011;11432;46.924;7.114;2023-02-11T08:41:12;17.50;;;11.18;;
22531;SDS011;11432;46.924;7.114;2023-02-11T08:43:41;14.63;;;10.07;;
22531;SDS011;11432;46.924;7.114;2023-02-11T08:46:08;17.83;;;11.02;;
22531;SDS011;11432;46.924;7.114;2023-02-11T08:48:36;20.48;;;11.10;;
22531;SDS011;11432;46.924;7.114;2023-02-11T08:51:09;14.63;;;10.38;;
22531;SDS011;11432;46.924;7.114;2023-02-11T08:53:38;14.25;;;8.77;;
22531;SDS011;11432;46.924;7.114;2023-02-11T08:56:04;13.13;;;7.95;;
22531;SDS011;11432;46.924;7.114;2023-02-11T08:58:30;14.80;;;9.02;;
22531;SDS011;11432;46.924;7.114;2023-02-11T09:00:56;15.05;;;9.30;;
22531;SDS011;11432;46.924;7.114;2023-02-11T09:03:22;13.88;;;8.77;;
22531;SDS011;11432;46.924;7.114;2023-02-11T09:05:48;12.93;;;8.25;;
22531;SDS011;11432;46.924;7.114;2023-02-11T09:08:17;14.35;;;9.10;;
22531;SDS011;11432;46.924;7.114;2023-02-11T09:10:43;14.82;;;8.65;;
22531;SDS011;11432;46.924;7.114;2023-02-11T09:13:09;13.10;;;8.88;;
22531;SDS011;11432;46.924;7.114;2023-02-11T09:15:35;15.23;;;9.85;;
22531;SDS011;11432;46.924;7.114;2023-02-11T09:18:01;17.13;;;10.18;;
22531;SDS011;11432;46.924;7.114;2023-02-11T09:20:27;15.88;;;10.68;;
22531;SDS011;11432;46.924;7.114;2023-02-11T09:22:53;14.10;;;9.93;;
22531;SDS011;11432;46.924;7.114;2023-02-11T09:25:20;20.08;;;9.90;;
22531;SDS011;11432;46.924;7.114;2023-02-11T09:27:46;16.60;;;10.70;;
22531;SDS011;11432;46.924;7.114;2023-02-11T09:30:12;14.80;;;10.63;;
22531;SDS011;11432;46.924;7.114;2023-02-11T09:32:37;15.45;;;9.80;;
22531;SDS011;11432;46.924;7.114;2023-02-11T09:35:03;15.82;;;10.77;;
22531;SDS011;11432;46.924;7.114;2023-02-11T09:37:29;14.07;;;9.48;;
22531;SDS011;11432;46.924;7.114;2023-02-11T09:39:54;15.15;;;10.20;;
22531;SDS011;11432;46.924;7.114;2023-02-11T09:42:36;17.02;;;10.63;;
22531;SDS011;11432;46.924;7.114;2023-02-11T09:45:27;18.02;;;10.90;;
22531;SDS011;11432;46.924;7.114;2023-02-11T09:50:28;15.82;;;10.35;;
22531;SDS011;11432;46.924;7.114;2023-02-11T09:55:31;17.48;;;10.60;;
22531;SDS011;11432;46.924;7.114;2023-02-11T09:58:11;16.30;;;10.68;;
22531;SDS011;11432;46.924;7.114;2023-02-11T10:00:42;16.25;;;10.73;;
22531;SDS011;11432;46.924;7.114;2023-02-11T10:12:10;19.10;;;11.52;;
22531;SDS011;11432;46.924;7.114;2023-02-11T10:17:37;15.27;;;9.88;;
22531;SDS011;11432;46.924;7.114;2023-02-11T10:22:51;15.45;;;10.63;;
22531;SDS011;11432;46.924;7.114;2023-02-11T10:25:20;16.92;;;10.50;;
22531;SDS011;11432;46.924;7.114;2023-02-11T10:27:46;17.27;;;10.23;;
22531;SDS011;11432;46.924;7.114;2023-02-11T10:30:32;17.27;;;11.30;;
22531;SDS011;11432;46.924;7.114;2023-02-11T10:35:30;16.13;;;10.55;;
22531;SDS011;11432;46.924;7.114;2023-02-11T10:37:56;16.85;;;10.88;;
22531;SDS011;11432;46.924;7.114;2023-02-11T10:40:25;16.52;;;11.70;;
22531;SDS011;11432;46.924;7.114;2023-02-11T10:48:00;26.52;;;11.57;;
22531;SDS011;11432;46.924;7.114;2023-02-11T10:50:29;17.75;;;12.43;;
22531;SDS011;11432;46.924;7.114;2023-02-11T10:53:18;20.80;;;11.95;;
22531;SDS011;11432;46.924;7.114;2023-02-11T10:55:54;15.88;;;10.70;;
22531;SDS011;11432;46.924;7.114;2023-02-11T10:58:28;17.25;;;12.52;;
22531;SDS011;11432;46.924;7.114;2023-02-11T11:00:57;21.20;;;14.15;;
22531;SDS011;11432;46.924;7.114;2023-02-11T11:03:25;20.13;;;13.02;;
22531;SDS011;11432;46.924;7.114;2023-02-11T11:06:10;19.02;;;12.75;;
22531;SDS011;11432;46.924;7.114;2023-02-11T11:11:05;19.80;;;13.52;;
22531;SDS011;11432;46.924;7.114;2023-02-11T11:13:36;21.20;;;13.48;;
22531;SDS011;11432;46.924;7.114;2023-02-11T11:18:32;19.53;;;13.23;;
22531;SDS011;11432;46.924;7.114;2023-02-11T11:20:59;23.73;;;15.15;;
22531;SDS011;11432;46.924;7.114;2023-02-11T11:23:36;19.13;;;14.25;;
22531;SDS011;11432;46.924;7.114;2023-02-11T11:26:12;22.73;;;13.82;;
22531;SDS011;11432;46.924;7.114;2023-02-11T11:28:42;22.55;;;14.88;;
22531;SDS011;11432;46.924;7.114;2023-02-11T11:31:19;22.55;;;13.90;;
22531;SDS011;11432;46.924;7.114;2023-02-11T11:33:48;22.70;;;14.27;;
22531;SDS011;11432;46.924;7.114;2023-02-11T11:36:20;21.10;;;13.98;;
22531;SDS011;11432;46.924;7.114;2023-02-11T11:38:53;20.45;;;14.05;;
22531;SDS011;11432;46.924;7.114;2023-02-11T11:49:36;20.27;;;12.07;;
22531;SDS011;11432;46.924;7.114;2023-02-11T11:54:59;16.77;;;10.57;;
22531;SDS011;11432;46.924;7.114;2023-02-11T11:57:32;14.40;;;9.70;;
22531;SDS011;11432;46.924;7.114;2023-02-11T12:00:02;15.63;;;11.00;;
22531;SDS011;11432;46.924;7.114;2023-02-11T12:02:35;18.13;;;12.30;;
22531;SDS011;11432;46.924;7.114;2023-02-11T12:05:12;16.58;;;10.68;;
22531;SDS011;11432;46.924;7.114;2023-02-11T12:18:54;22.50;;;13.65;;
22531;SDS011;11432;46.924;7.114;2023-02-11T12:27:22;20.92;;;13.82;;
22531;SDS011;11432;46.924;7.114;2023-02-11T12:30:08;18.27;;;12.13;;
22531;SDS011;11432;46.924;7.114;2023-02-11T12:38:03;19.77;;;12.43;;
22531;SDS011;11432;46.924;7.114;2023-02-11T12:40:44;20.13;;;11.32;;
22531;SDS011;11432;46.924;7.114;2023-02-11T12:54:20;20.42;;;13.27;;
22531;SDS011;11432;46.924;7.114;2023-02-11T13:02:59;21.48;;;12.43;;
22531;SDS011;11432;46.924;7.114;2023-02-11T13:08:14;23.05;;;13.80;;
22531;SDS011;11432;46.924;7.114;2023-02-11T13:11:12;20.42;;;13.88;;
22531;SDS011;11432;46.924;7.114;2023-02-11T13:18:54;22.45;;;13.40;;
22531;SDS011;11432;46.924;7.114;2023-02-11T13:40:27;24.05;;;14.95;;
22531;SDS011;11432;46.924;7.114;2023-02-11T13:43:00;21.38;;;14.77;;
22531;SDS011;11432;46.924;7.114;2023-02-11T13:48:06;22.75;;;14.77;;
22531;SDS011;11432;46.924;7.114;2023-02-11T13:50:44;24.77;;;14.02;;
22531;SDS011;11432;46.924;7.114;2023-02-11T13:53:12;22.00;;;13.82;;
22531;SDS011;11432;46.924;7.114;2023-02-11T13:55:41;25.35;;;14.35;;
22531;SDS011;11432;46.924;7.114;2023-02-11T13:58:17;21.88;;;14.13;;
22531;SDS011;11432;46.924;7.114;2023-02-11T14:00:52;20.98;;;13.45;;
22531;SDS011;11432;46.924;7.114;2023-02-11T14:03:20;21.45;;;14.55;;
22531;SDS011;11432;46.924;7.114;2023-02-11T14:06:10;22.02;;;13.77;;
22531;SDS011;11432;46.924;7.114;2023-02-11T14:09:42;21.02;;;13.43;;
22531;SDS011;11432;46.924;7.114;2023-02-11T14:11:44;22.58;;;13.77;;
22531;SDS011;11432;46.924;7.114;2023-02-11T14:19:33;19.88;;;13.05;;
22531;SDS011;11432;46.924;7.114;2023-02-11T14:25:00;18.65;;;12.60;;
22531;SDS011;11432;46.924;7.114;2023-02-11T14:35:35;21.42;;;14.57;;
22531;SDS011;11432;46.924;7.114;2023-02-11T14:43:54;24.80;;;14.43;;
22531;SDS011;11432;46.924;7.114;2023-02-11T14:46:29;25.17;;;14.20;;
22531;SDS011;11432;46.924;7.114;2023-02-11T14:48:57;23.63;;;13.38;;
22531;SDS011;11432;46.924;7.114;2023-02-11T14:53:52;23.52;;;12.75;;
22531;SDS011;11432;46.924;7.114;2023-02-11T14:58:50;19.63;;;11.63;;
22531;SDS011;11432;46.924;7.114;2023-02-11T15:01:30;20.40;;;11.63;;
22531;SDS011;11432;46.924;7.114;2023-02-11T15:04:01;19.65;;;11.60;;
22531;SDS011;11432;46.924;7.114;2023-02-11T15:06:33;23.08;;;13.00;;
22531;SDS011;11432;46.924;7.114;2023-02-11T15:09:20;21.70;;;11.93;;
22531;SDS011;11432;46.924;7.114;2023-02-11T15:11:58;22.85;;;13.30;;
22531;SDS011;11432;46.924;7.114;2023-02-11T15:14:24;21.60;;;12.98;;
22531;SDS011;11432;46.924;7.114;2023-02-11T15:17:01;21.02;;;13.30;;
22531;SDS011;11432;46.924;7.114;2023-02-11T15:21:59;25.85;;;15.90;;
22531;SDS011;11432;46.924;7.114;2023-02-11T15:24:30;26.20;;;14.95;;
22531;SDS011;11432;46.924;7.114;2023-02-11T15:29:48;23.85;;;15.38;;
22531;SDS011;11432;46.924;7.114;2023-02-11T15:32:18;20.58;;;14.30;;
22531;SDS011;11432;46.924;7.114;2023-02-11T15:34:46;27.13;;;15.48;;
22531;SDS011;11432;46.924;7.114;2023-02-11T15:37:34;24.25;;;14.77;;
22531;SDS011;11432;46.924;7.114;2023-02-11T15:40:14;24.48;;;15.35;;
22531;SDS011;11432;46.924;7.114;2023-02-11T15:43:03;23.30;;;12.93;;
22531;SDS011;11432;46.924;7.114;2023-02-11T15:50:34;21.13;;;13.85;;
22531;SDS011;11432;46.924;7.114;2023-02-11T15:53:12;23.13;;;14.65;;
22531;SDS011;11432;46.924;7.114;2023-02-11T15:56:09;22.23;;;13.68;;
22531;SDS011;11432;46.924;7.114;2023-02-11T15:58:40;23.17;;;14.23;;
22531;SDS011;11432;46.924;7.114;2023-02-11T16:01:07;22.85;;;14.65;;
22531;SDS011;11432;46.924;7.114;2023-02-11T16:03:34;24.98;;;14.15;;
22531;SDS011;11432;46.924;7.114;2023-02-11T16:06:16;22.92;;;13.48;;
22531;SDS011;11432;46.924;7.114;2023-02-11T16:09:00;24.40;;;14.48;;
22531;SDS011;11432;46.924;7.114;2023-02-11T16:11:32;23.95;;;14.32;;
22531;SDS011;11432;46.924;7.114;2023-02-11T16:14:00;22.42;;;14.68;;
22531;SDS011;11432;46.924;7.114;2023-02-11T16:16:43;22.45;;;14.50;;
22531;SDS011;11432;46.924;7.114;2023-02-11T16:19:13;25.23;;;14.35;;
22531;SDS011;11432;46.924;7.114;2023-02-11T16:21:43;24.35;;;14.00;;
22531;SDS011;11432;46.924;7.114;2023-02-11T16:24:20;23.50;;;14.73;;
22531;SDS011;11432;46.924;7.114;2023-02-11T16:26:50;24.85;;;15.15;;
22531;SDS011;11432;46.924;7.114;2023-02-11T16:29:22;29.70;;;16.02;;
22531;SDS011;11432;46.924;7.114;2023-02-11T16:31:50;24.70;;;15.32;;
22531;SDS011;11432;46.924;7.114;2023-02-11T16:36:37;24.08;;;15.68;;
22531;SDS011;11432;46.924;7.114;2023-02-11T16:39:02;24.90;;;15.32;;
22531;SDS011;11432;46.924;7.114;2023-02-11T16:41:28;25.77;;;15.60;;
22531;SDS011;11432;46.924;7.114;2023-02-11T16:43:55;25.90;;;15.45;;
22531;SDS011;11432;46.924;7.114;2023-02-11T16:46:22;23.65;;;15.98;;
22531;SDS011;11432;46.924;7.114;2023-02-11T16:48:48;25.55;;;15.60;;
22531;SDS011;11432;46.924;7.114;2023-02-11T16:51:14;25.52;;;16.23;;
22531;SDS011;11432;46.924;7.114;2023-02-11T16:53:39;27.55;;;16.92;;
22531;SDS011;11432;46.924;7.114;2023-02-11T16:56:05;25.88;;;16.08;;
22531;SDS011;11432;46.924;7.114;2023-02-11T16:58:31;28.13;;;17.52;;
22531;SDS011;11432;46.924;7.114;2023-02-11T17:00:57;27.48;;;16.00;;
22531;SDS011;11432;46.924;7.114;2023-02-11T17:03:23;25.23;;;17.25;;
22531;SDS011;11432;46.924;7.114;2023-02-11T17:05:51;24.90;;;16.10;;
22531;SDS011;11432;46.924;7.114;2023-02-11T17:08:17;28.13;;;17.00;;
22531;SDS011;11432;46.924;7.114;2023-02-11T17:10:43;26.48;;;17.08;;
22531;SDS011;11432;46.924;7.114;2023-02-11T17:13:08;29.33;;;17.58;;
22531;SDS011;11432;46.924;7.114;2023-02-11T17:15:34;29.48;;;17.08;;
22531;SDS011;11432;46.924;7.114;2023-02-11T17:18:00;26.35;;;17.13;;
22531;SDS011;11432;46.924;7.114;2023-02-11T17:20:26;26.92;;;18.40;;
22531;SDS011;11432;46.924;7.114;2023-02-11T17:22:52;28.45;;;16.98;;
22531;SDS011;11432;46.924;7.114;2023-02-11T17:25:18;27.13;;;18.00;;
22531;SDS011;11432;46.924;7.114;2023-02-11T17:27:43;27.83;;;17.52;;
22531;SDS011;11432;46.924;7.114;2023-02-11T17:30:11;30.08;;;17.35;;
22531;SDS011;11432;46.924;7.114;2023-02-11T17:32:37;24.63;;;16.45;;
22531;SDS011;11432;46.924;7.114;2023-02-11T17:35:03;29.30;;;18.33;;
22531;SDS011;11432;46.924;7.114;2023-02-11T17:37:31;28.20;;;17.98;;
22531;SDS011;11432;46.924;7.114;2023-02-11T17:39:57;30.77;;;18.83;;
22531;SDS011;11432;46.924;7.114;2023-02-11T17:42:22;28.73;;;18.13;;
22531;SDS011;11432;46.924;7.114;2023-02-11T17:44:48;26.27;;;17.45;;
22531;SDS011;11432;46.924;7.114;2023-02-11T17:47:14;27.63;;;16.98;;
22531;SDS011;11432;46.924;7.114;2023-02-11T17:49:39;26.50;;;17.38;;